Time;durP1;ratioP1;P1;durP2;ratioP2;P2;SDS_P1;SDS_P2;PMS_P1;PMS_P2;Temp;Humidity;BMP_temperature;BMP_pressure;BME280_temperature;BME280_humidity;BME280_pressure;Samples;Min_cycle;Max_cycle;Signal;HPM_P1;HPM_P2
2023/09/02 00:00:14;;;;;;;14.30;11.13;;;21.10;67.10;22.80;101512.00;;;;5088982;28;20205;-82
2023/09/02 00:02:43;;;;;;;14.93;11.13;;;21.10;67.10;22.70;101502.00;;;;5089561;28;20218;-83
2023/09/02 00:05:10;;;;;;;17.02;11.75;;;21.10;67.10;22.70;101508.00;;;;5088893;28;20217;-83
2023/09/02 00:07:37;;;;;;;16.25;11.43;;;21.10;67.10;22.70;101499.00;;;;5088994;28;20230;-83
2023/09/02 00:10:05;;;;;;;16.15;11.75;;;21.00;67.00;22.70;101501.00;;;;5088919;28;20198;-83
2023/09/02 00:12:32;;;;;;;17.02;12.45;;;21.00;67.10;22.70;101495.00;;;;5089351;28;20218;-83
2023/09/02 00:14:59;;;;;;;15.50;11.40;;;21.00;67.10;22.60;101496.00;;;;5088785;28;20193;-83
2023/09/02 00:17:26;;;;;;;16.90;12.07;;;20.90;67.10;22.60;101498.00;;;;5088319;28;20190;-83
2023/09/02 00:19:54;;;;;;;16.73;12.63;;;20.90;67.10;22.60;101506.00;;;;5089337;28;20251;-82
2023/09/02 00:22:21;;;;;;;18.85;12.82;;;20.90;67.20;22.60;101504.00;;;;5088502;28;20529;-82
2023/09/02 00:24:48;;;;;;;18.55;13.20;;;20.90;67.20;22.60;101508.00;;;;5086241;28;20571;-82
2023/09/02 00:27:15;;;;;;;17.50;11.98;;;20.90;67.20;22.50;101507.00;;;;5088920;28;20222;-82
2023/09/02 00:29:42;;;;;;;16.27;12.48;;;20.90;67.30;22.50;101509.00;;;;5070531;28;20201;-83
2023/09/02 00:32:09;;;;;;;16.73;12.65;;;20.80;67.20;22.50;101511.00;;;;5088408;28;20197;-82
2023/09/02 00:34:36;;;;;;;16.52;12.07;;;20.80;67.20;22.50;101510.00;;;;5088528;28;20575;-83
2023/09/02 00:37:04;;;;;;;16.65;11.73;;;20.80;67.30;22.40;101508.00;;;;5088313;28;20206;-83
2023/09/02 00:39:32;;;;;;;15.32;11.38;;;20.80;67.30;22.40;101504.00;;;;5087818;28;20292;-82
2023/09/02 00:42:01;;;;;;;18.70;13.15;;;20.80;67.30;22.40;101499.00;;;;5088472;28;20210;-82
2023/09/02 00:44:28;;;;;;;14.68;11.68;;;20.70;67.30;22.40;101503.00;;;;5088004;28;20206;-82
2023/09/02 00:47:00;;;;;;;17.20;12.02;;;20.70;67.20;22.30;101509.00;;;;5088822;28;20201;-82
2023/09/02 00:49:27;;;;;;;18.38;12.65;;;20.70;67.30;22.30;101507.00;;;;5087775;28;20187;-82
2023/09/02 00:51:55;;;;;;;15.15;11.90;;;20.70;67.30;22.30;101501.00;;;;5088534;28;20759;-82
2023/09/02 00:54:23;;;;;;;15.95;11.82;;;20.70;67.30;22.30;101507.00;;;;5087457;28;20691;-82
2023/09/02 00:56:51;;;;;;;15.05;11.65;;;20.60;67.30;22.30;101502.00;;;;5088161;28;20202;-82
2023/09/02 00:59:18;;;;;;;15.98;11.60;;;20.60;67.20;22.30;101507.00;;;;5088396;28;20214;-82
2023/09/02 01:01:46;;;;;;;13.80;11.10;;;20.60;67.20;22.20;101505.00;;;;5088138;28;20229;-82
2023/09/02 01:04:14;;;;;;;14.43;11.02;;;20.60;67.20;22.20;101509.00;;;;5088287;28;20204;-82
2023/09/02 01:06:42;;;;;;;13.70;10.73;;;20.50;67.20;22.20;101504.00;;;;5086930;28;20190;-82
2023/09/02 01:09:11;;;;;;;14.85;11.18;;;20.50;67.20;22.10;101500.00;;;;5088318;28;20226;-82
2023/09/02 01:11:39;;;;;;;16.00;10.57;;;20.50;67.20;22.10;101504.00;;;;5087981;28;20216;-82
2023/09/02 01:14:08;;;;;;;16.00;11.20;;;20.50;67.20;22.10;101501.00;;;;5087879;28;20659;-82
2023/09/02 01:16:35;;;;;;;14.25;10.80;;;20.40;67.10;22.10;101505.00;;;;5087298;28;20225;-82
2023/09/02 01:19:04;;;;;;;13.75;10.60;;;20.40;67.10;22.10;101505.00;;;;5088072;28;20205;-82
2023/09/02 01:22:00;;;;;;;14.45;10.10;;;20.40;67.20;21.90;101512.00;;;;5087995;28;20275;-82
2023/09/02 01:25:01;;;;;;;14.48;10.32;;;20.30;67.30;21.90;101513.00;;;;5087699;28;20202;-82
2023/09/02 01:27:35;;;;;;;15.00;10.85;;;20.30;67.30;21.90;101513.00;;;;5088446;28;20225;-82
2023/09/02 01:30:09;;;;;;;13.00;9.82;;;20.30;67.10;21.90;101514.00;;;;5088370;28;20227;-82
2023/09/02 01:32:44;;;;;;;24.60;10.95;;;20.30;67.10;21.90;101521.00;;;;5087774;28;20206;-83
2023/09/02 01:35:18;;;;;;;13.85;9.45;;;20.30;67.20;21.80;101524.00;;;;5087794;28;20202;-82
2023/09/02 01:37:50;;;;;;;15.73;10.02;;;20.20;67.20;21.80;101524.00;;;;5087560;28;20209;-83
2023/09/02 01:40:24;;;;;;;12.32;9.68;;;20.20;67.20;21.80;101528.00;;;;5087413;28;20210;-83
2023/09/02 01:42:55;;;;;;;14.00;10.68;;;20.20;67.30;21.80;101531.00;;;;5088182;28;20273;-83
2023/09/02 01:45:27;;;;;;;16.02;10.57;;;20.20;67.30;21.80;101534.00;;;;5087732;28;20210;-83
2023/09/02 01:47:56;;;;;;;15.43;9.95;;;20.10;67.30;21.80;101531.00;;;;5087387;28;20257;-83
2023/09/02 01:50:28;;;;;;;14.02;10.27;;;20.10;67.30;21.70;101533.00;;;;5087514;28;20630;-83
2023/09/02 01:52:56;;;;;;;16.33;10.95;;;20.10;67.30;21.80;101536.00;;;;5088281;28;20237;-83
2023/09/02 01:55:24;;;;;;;13.77;10.23;;;20.10;67.30;21.70;101535.00;;;;5087003;28;20608;-83
2023/09/02 01:57:55;;;;;;;13.63;9.90;;;20.10;67.30;21.70;101539.00;;;;5087918;28;20210;-83
2023/09/02 02:00:22;;;;;;;10.82;8.65;;;20.00;67.30;21.70;101540.00;;;;5088782;28;20570;-83
2023/09/02 02:02:53;;;;;;;12.52;8.60;;;20.00;67.30;21.70;101539.00;;;;5086284;28;20218;-82
2023/09/02 02:05:26;;;;;;;16.02;9.30;;;20.00;67.40;21.60;101543.00;;;;5088154;28;20735;-82
2023/09/02 02:07:59;;;;;;;13.45;9.45;;;20.00;67.50;21.60;101549.00;;;;5088427;28;20226;-83
2023/09/02 02:10:30;;;;;;;13.73;9.35;;;20.00;67.50;21.60;101550.00;;;;5087908;28;20308;-82
2023/09/02 02:13:01;;;;;;;12.18;9.20;;;20.00;67.50;21.70;101547.00;;;;5088360;28;20205;-82
2023/09/02 02:15:29;;;;;;;12.75;9.10;;;20.00;67.50;21.70;101551.00;;;;5087342;28;20222;-82
2023/09/02 02:17:55;;;;;;;11.82;9.88;;;20.00;67.60;21.70;101551.00;;;;5088269;28;20198;-82
2023/09/02 02:20:25;;;;;;;14.05;10.52;;;20.00;67.70;21.60;101555.00;;;;5087805;28;20288;-82
2023/09/02 02:22:52;;;;;;;13.68;10.15;;;20.00;67.70;21.60;101553.00;;;;5087859;28;20202;-82
2023/09/02 02:25:19;;;;;;;16.55;11.27;;;19.90;67.60;21.60;101552.00;;;;5073047;28;20646;-82
2023/09/02 02:27:46;;;;;;;15.25;11.27;;;19.90;67.70;21.60;101546.00;;;;5067384;28;20222;-82
2023/09/02 02:30:14;;;;;;;13.98;9.95;;;19.90;67.70;21.60;101553.00;;;;5067929;28;20194;-82
2023/09/02 02:32:41;;;;;;;14.05;10.85;;;19.90;67.70;21.60;101556.00;;;;5066994;28;20672;-83
2023/09/02 02:35:10;;;;;;;14.00;10.18;;;19.90;67.70;21.60;101559.00;;;;5067836;28;20210;-82
2023/09/02 02:37:37;;;;;;;14.93;9.70;;;19.90;67.70;21.60;101550.00;;;;5069713;28;20207;-82
2023/09/02 02:40:05;;;;;;;14.18;9.50;;;19.90;67.80;21.60;101554.00;;;;5073067;28;20203;-82
2023/09/02 02:42:32;;;;;;;13.73;8.70;;;19.90;67.80;21.60;101548.00;;;;5091609;28;20570;-82
2023/09/02 02:44:59;;;;;;;12.60;8.50;;;19.90;67.90;21.60;101551.00;;;;5091568;28;20206;-82
2023/09/02 02:47:27;;;;;;;10.30;8.55;;;19.90;68.00;21.60;101547.00;;;;5084772;28;20207;-82
2023/09/02 02:49:54;;;;;;;12.52;9.60;;;19.90;68.10;21.60;101565.00;;;;5085595;28;20190;-82
2023/09/02 02:52:21;;;;;;;14.80;10.60;;;19.90;68.10;21.60;101560.00;;;;5090164;28;20225;-82
2023/09/02 02:54:48;;;;;;;12.63;9.77;;;19.90;68.20;21.60;101550.00;;;;5070784;28;20832;-83
2023/09/02 02:57:15;;;;;;;14.18;9.63;;;19.90;68.20;21.70;101549.00;;;;5075243;28;20217;-82
2023/09/02 02:59:42;;;;;;;16.25;9.90;;;20.00;68.40;21.70;101552.00;;;;5091144;28;20194;-82
2023/09/02 03:02:09;;;;;;;13.23;9.07;;;19.90;68.50;21.70;101552.00;;;;5090619;28;20710;-82
2023/09/02 03:04:37;;;;;;;14.88;10.35;;;20.00;68.60;21.70;101562.00;;;;5089456;28;20194;-82
2023/09/02 03:07:04;;;;;;;14.45;10.63;;;20.00;68.60;21.70;101555.00;;;;5070047;28;20695;-82
2023/09/02 03:09:31;;;;;;;16.55;10.57;;;20.00;68.60;21.70;101553.00;;;;5069763;28;20227;-82
2023/09/02 03:11:58;;;;;;;14.32;9.80;;;20.00;68.70;21.80;101553.00;;;;5070625;28;20674;-83
2023/09/02 03:14:26;;;;;;;15.07;11.18;;;20.10;68.80;21.80;101552.00;;;;5075576;28;20202;-83
2023/09/02 03:16:53;;;;;;;18.15;11.05;;;20.10;68.80;21.80;101555.00;;;;5090630;28;20201;-83
2023/09/02 03:19:20;;;;;;;14.50;10.38;;;20.10;68.90;21.80;101562.00;;;;5088751;28;20212;-82
2023/09/02 03:21:48;;;;;;;17.80;10.93;;;20.20;69.00;21.80;101550.00;;;;5090277;28;20622;-82
2023/09/02 03:24:15;;;;;;;15.48;9.60;;;20.10;69.00;21.90;101551.00;;;;5084698;28;20214;-83
2023/09/02 03:26:42;;;;;;;24.65;11.38;;;20.20;69.10;21.90;101557.00;;;;5069526;28;20217;-83
2023/09/02 03:29:09;;;;;;;13.00;8.68;;;20.20;69.10;21.90;101562.00;;;;5069856;28;20226;-83
2023/09/02 03:31:37;;;;;;;17.35;10.10;;;20.20;69.10;21.90;101571.00;;;;5075913;28;20213;-82
2023/09/02 03:34:04;;;;;;;19.63;8.38;;;20.20;69.10;21.90;101559.00;;;;5090148;28;20198;-82
2023/09/02 03:36:32;;;;;;;15.57;8.13;;;20.20;69.10;21.90;101561.00;;;;5090266;28;20201;-83
2023/09/02 03:39:00;;;;;;;14.63;8.80;;;20.30;69.20;21.90;101563.00;;;;5089964;28;20202;-82
2023/09/02 03:41:27;;;;;;;9.63;7.68;;;20.30;69.20;22.00;101565.00;;;;5090242;28;20205;-82
2023/09/02 03:43:55;;;;;;;19.50;8.27;;;20.30;69.20;22.00;101570.00;;;;5090249;28;20194;-83
2023/09/02 03:46:25;;;;;;;15.80;8.85;;;20.30;69.20;22.00;101574.00;;;;5088438;28;20202;-83
2023/09/02 03:48:53;;;;;;;10.88;8.57;;;20.30;69.20;22.00;101578.00;;;;5078911;28;20226;-82
2023/09/02 03:51:19;;;;;;;24.42;8.93;;;20.40;69.20;22.00;101574.00;;;;5089908;28;20660;-83
2023/09/02 03:53:46;;;;;;;24.60;9.38;;;20.30;69.20;22.00;101579.00;;;;5089515;28;20647;-83
2023/09/02 03:56:15;;;;;;;15.73;8.73;;;20.40;69.30;22.00;101574.00;;;;5089757;28;20288;-83
2023/09/02 03:58:42;;;;;;;12.70;9.23;;;20.40;69.30;22.00;101574.00;;;;5089890;28;20206;-83
2023/09/02 04:01:09;;;;;;;17.15;9.35;;;20.40;69.30;22.00;101581.00;;;;5089670;28;20201;-82
2023/09/02 04:03:36;;;;;;;25.02;8.75;;;20.40;69.30;22.00;101578.00;;;;5089293;28;20199;-83
2023/09/02 04:06:03;;;;;;;15.57;8.55;;;20.40;69.30;22.00;101582.00;;;;5088087;28;20210;-83
2023/09/02 04:08:33;;;;;;;10.68;8.27;;;20.40;69.30;22.10;101584.00;;;;5089320;28;20222;-83
2023/09/02 04:11:02;;;;;;;21.10;9.48;;;20.40;69.30;22.00;101590.00;;;;5089021;28;20621;-83
2023/09/02 04:13:31;;;;;;;11.15;7.50;;;20.40;69.30;22.10;101593.00;;;;5088937;28;20198;-83
2023/09/02 04:16:00;;;;;;;17.38;7.90;;;20.40;69.30;22.10;101588.00;;;;5089048;28;20206;-83
2023/09/02 04:18:27;;;;;;;14.10;8.52;;;20.40;69.30;22.10;101577.00;;;;5088776;28;20205;-83
2023/09/02 04:20:54;;;;;;;14.20;8.43;;;20.40;69.30;22.10;101588.00;;;;5088855;28;20202;-83
2023/09/02 04:23:22;;;;;;;22.02;8.15;;;20.40;69.20;22.10;101590.00;;;;5088470;28;20236;-83
2023/09/02 04:25:51;;;;;;;15.80;9.07;;;20.40;69.20;22.10;101590.00;;;;5071838;28;20209;-83
2023/09/02 04:28:19;;;;;;;10.45;7.63;;;20.40;69.20;22.10;101594.00;;;;5068101;28;20570;-83
2023/09/02 04:30:48;;;;;;;23.52;7.45;;;20.40;69.20;22.10;101596.00;;;;5068400;28;20223;-83
2023/09/02 04:33:16;;;;;;;13.55;7.45;;;20.40;69.20;22.10;101599.00;;;;5067892;28;20206;-83
2023/09/02 04:35:45;;;;;;;10.38;6.85;;;20.40;69.20;22.10;101601.00;;;;5068130;28;20668;-83
2023/09/02 04:38:14;;;;;;;11.00;7.68;;;20.40;69.20;22.10;101608.00;;;;5068059;28;20203;-83
2023/09/02 04:40:47;;;;;;;8.63;6.57;;;20.40;69.20;22.10;101612.00;;;;5084742;28;20271;-83
2023/09/02 04:43:15;;;;;;;19.67;6.85;;;20.40;69.20;22.10;101606.00;;;;5088288;28;20206;-83
2023/09/02 04:45:43;;;;;;;10.40;7.53;;;20.50;69.30;22.10;101615.00;;;;5087644;28;20232;-83
2023/09/02 04:48:12;;;;;;;9.98;6.93;;;20.40;69.20;22.10;101606.00;;;;5088307;28;20559;-83
2023/09/02 04:50:40;;;;;;;10.75;6.80;;;20.50;69.20;22.10;101620.00;;;;5088352;28;20214;-83
2023/09/02 04:53:08;;;;;;;8.50;6.38;;;20.40;69.10;22.10;101618.00;;;;5087635;28;20603;-83
2023/09/02 04:55:39;;;;;;;12.70;6.25;;;20.50;69.10;22.10;101628.00;;;;5088424;28;20925;-82
2023/09/02 04:58:07;;;;;;;8.30;5.82;;;20.40;69.10;22.10;101635.00;;;;5088230;28;20206;-83
2023/09/02 05:00:35;;;;;;;7.50;5.63;;;20.40;69.10;22.10;101627.00;;;;5088453;28;20202;-83
2023/09/02 05:03:02;;;;;;;11.68;6.30;;;20.40;69.10;22.10;101633.00;;;;5088165;28;20214;-83
2023/09/02 05:05:32;;;;;;;24.08;6.80;;;20.40;69.10;22.10;101632.00;;;;5086523;28;20216;-83
2023/09/02 05:07:59;;;;;;;8.00;6.28;;;20.40;69.10;22.10;101633.00;;;;5087832;28;20236;-83
2023/09/02 05:10:26;;;;;;;8.45;5.63;;;20.40;69.10;22.10;101625.00;;;;5087582;28;20245;-83
2023/09/02 05:12:53;;;;;;;6.20;5.60;;;20.40;69.10;22.10;101636.00;;;;5088127;28;20668;-83
2023/09/02 05:15:21;;;;;;;6.07;4.88;;;20.40;69.10;22.10;101635.00;;;;5087848;28;20205;-83
2023/09/02 05:17:47;;;;;;;9.25;5.95;;;20.40;69.10;22.10;101640.00;;;;5087912;28;20191;-83
2023/09/02 05:20:14;;;;;;;11.20;5.38;;;20.40;69.10;22.10;101642.00;;;;5088193;28;20608;-83
2023/09/02 05:22:43;;;;;;;8.40;5.78;;;20.40;69.10;22.10;101650.00;;;;5087768;28;20209;-82
2023/09/02 05:25:10;;;;;;;5.85;5.05;;;20.40;69.10;22.10;101648.00;;;;5076397;28;20213;-83
2023/09/02 05:27:38;;;;;;;13.60;5.93;;;20.40;69.10;22.10;101644.00;;;;5068360;28;20202;-83
2023/09/02 05:30:07;;;;;;;10.25;5.38;;;20.40;69.10;22.10;101649.00;;;;5070096;28;20623;-83
2023/09/02 05:32:34;;;;;;;7.30;4.72;;;20.40;69.10;22.10;101661.00;;;;5087622;28;20203;-83
2023/09/02 05:35:01;;;;;;;5.55;5.05;;;20.40;69.10;22.10;101659.00;;;;5087212;28;20210;-83
2023/09/02 05:37:28;;;;;;;7.35;5.60;;;20.40;69.00;22.00;101664.00;;;;5087900;28;20252;-83
2023/09/02 05:39:56;;;;;;;8.85;5.80;;;20.40;69.00;22.00;101663.00;;;;5087587;28;20206;-82
2023/09/02 05:42:23;;;;;;;8.18;5.78;;;20.40;68.90;22.00;101662.00;;;;5088063;28;20202;-83
2023/09/02 05:44:50;;;;;;;5.72;5.13;;;20.30;68.90;22.00;101671.00;;;;5087427;28;20197;-83
2023/09/02 05:47:17;;;;;;;7.15;4.85;;;20.30;68.80;22.00;101674.00;;;;5087485;28;20210;-82
2023/09/02 05:49:44;;;;;;;5.72;5.15;;;20.30;68.80;22.00;101677.00;;;;5087725;28;20222;-83
2023/09/02 05:52:11;;;;;;;5.60;4.95;;;20.30;68.80;22.00;101675.00;;;;5087586;28;20225;-83
2023/09/02 05:54:38;;;;;;;5.50;4.70;;;20.30;68.80;22.00;101674.00;;;;5087561;28;20691;-83
2023/09/02 05:57:06;;;;;;;10.07;5.07;;;20.30;68.80;22.00;101669.00;;;;5087322;28;20198;-82
2023/09/02 05:59:33;;;;;;;6.03;5.13;;;20.30;68.90;22.00;101672.00;;;;5087940;28;20644;-83
2023/09/02 06:02:00;;;;;;;6.53;4.13;;;20.30;68.90;22.00;101666.00;;;;5087638;28;20214;-82
2023/09/02 06:04:27;;;;;;;6.90;5.68;;;20.30;68.80;22.00;101670.00;;;;5087806;28;20218;-83
2023/09/02 06:06:55;;;;;;;5.50;5.00;;;20.30;68.80;22.00;101674.00;;;;5086634;28;20210;-83
2023/09/02 06:09:26;;;;;;;9.73;5.60;;;20.30;68.90;22.00;101669.00;;;;5086731;28;20218;-82
2023/09/02 06:11:53;;;;;;;6.78;5.03;;;20.30;68.90;21.90;101673.00;;;;5088882;28;20209;-83
2023/09/02 06:14:21;;;;;;;8.13;4.80;;;20.20;68.80;21.90;101672.00;;;;5091184;28;20212;-83
2023/09/02 06:16:48;;;;;;;5.95;4.88;;;20.20;68.90;21.90;101677.00;;;;5090784;28;20202;-82
2023/09/02 06:19:17;;;;;;;5.75;4.88;;;20.20;68.90;21.90;101678.00;;;;5090839;28;20197;-83
2023/09/02 06:21:45;;;;;;;5.40;4.57;;;20.20;68.90;21.90;101685.00;;;;5090844;28;20660;-83
2023/09/02 06:24:12;;;;;;;6.35;4.40;;;20.20;69.00;21.90;101691.00;;;;5091096;28;20627;-83
2023/09/02 06:26:39;;;;;;;4.38;3.97;;;20.20;69.10;21.90;101688.00;;;;5090770;28;20693;-84
2023/09/02 06:29:06;;;;;;;5.40;4.47;;;20.20;69.10;21.90;101693.00;;;;5090107;28;20229;-83
2023/09/02 06:31:34;;;;;;;7.30;4.95;;;20.20;69.20;21.90;101698.00;;;;5091157;28;20651;-83
2023/09/02 06:34:01;;;;;;;5.72;4.97;;;20.20;69.30;22.00;101701.00;;;;5091367;28;20199;-83
2023/09/02 06:36:28;;;;;;;5.47;4.80;;;20.20;69.30;22.00;101706.00;;;;5090822;28;20211;-83
2023/09/02 06:38:55;;;;;;;12.07;5.28;;;20.20;69.40;22.00;101712.00;;;;5090553;28;20663;-83
2023/09/02 06:41:22;;;;;;;4.93;4.43;;;20.30;69.40;22.00;101719.00;;;;5089864;28;20571;-83
2023/09/02 06:43:50;;;;;;;6.05;5.03;;;20.30;69.50;22.00;101733.00;;;;5091353;28;20202;-83
2023/09/02 06:46:19;;;;;;;5.07;4.57;;;20.30;69.50;22.00;101731.00;;;;5091436;28;20206;-83
2023/09/02 06:48:48;;;;;;;5.90;5.28;;;20.30;69.50;22.00;101739.00;;;;5090878;28;20820;-83
2023/09/02 06:51:16;;;;;;;5.80;5.10;;;20.30;69.50;22.10;101745.00;;;;5091045;28;20692;-82
2023/09/02 06:53:44;;;;;;;7.78;5.65;;;20.30;69.50;22.10;101748.00;;;;5091454;28;20226;-82
2023/09/02 06:56:12;;;;;;;5.85;5.07;;;20.30;69.60;22.10;101753.00;;;;5090393;28;20202;-83
2023/09/02 06:58:41;;;;;;;6.00;4.18;;;20.40;69.70;22.10;101758.00;;;;5091427;28;20205;-83
2023/09/02 07:01:17;;;;;;;6.07;4.82;;;20.40;69.70;22.10;101760.00;;;;5090499;28;20200;-83
2023/09/02 07:03:46;;;;;;;7.53;4.75;;;20.40;69.80;22.20;101755.00;;;;5091115;28;20205;-83
2023/09/02 07:06:15;;;;;;;6.75;5.43;;;20.40;69.70;22.20;101765.00;;;;5091022;28;20202;-83
2023/09/02 07:08:42;;;;;;;6.10;5.22;;;20.50;69.70;22.20;101767.00;;;;5091042;28;20228;-83
2023/09/02 07:11:09;;;;;;;7.47;5.68;;;20.50;69.70;22.20;101769.00;;;;5090165;28;20222;-83
2023/09/02 07:13:37;;;;;;;6.03;4.97;;;20.50;69.70;22.20;101771.00;;;;5090607;28;20210;-83
2023/09/02 07:16:05;;;;;;;5.32;4.72;;;20.50;69.60;22.20;101778.00;;;;5090549;28;20198;-83
2023/09/02 07:18:32;;;;;;;5.47;4.60;;;20.50;69.60;22.30;101777.00;;;;5090940;28;20195;-83
2023/09/02 07:21:02;;;;;;;5.65;5.03;;;20.50;69.70;22.30;101777.00;;;;5091154;28;20205;-83
2023/09/02 07:23:30;;;;;;;5.55;5.00;;;20.60;69.80;22.30;101785.00;;;;5089017;28;20210;-83
2023/09/02 07:25:59;;;;;;;5.20;4.65;;;20.60;69.80;22.40;101788.00;;;;5075179;28;20207;-83
2023/09/02 07:28:26;;;;;;;10.73;5.35;;;20.60;69.80;22.40;101788.00;;;;5070279;28;20229;-83
2023/09/02 07:30:53;;;;;;;5.20;4.45;;;20.70;69.90;22.40;101779.00;;;;5088010;28;20222;-82
2023/09/02 07:33:21;;;;;;;6.32;5.35;;;20.70;69.90;22.40;101792.00;;;;5090965;28;20198;-83
2023/09/02 07:35:48;;;;;;;6.30;5.00;;;20.70;70.00;22.50;101803.00;;;;5090468;28;20194;-82
2023/09/02 07:38:16;;;;;;;6.03;5.30;;;20.70;70.00;22.50;101802.00;;;;5089310;28;20256;-83
2023/09/02 07:40:43;;;;;;;6.78;5.80;;;20.80;70.10;22.50;101808.00;;;;5090484;28;20190;-82
2023/09/02 07:43:10;;;;;;;5.45;4.47;;;20.80;70.00;22.60;101813.00;;;;5090071;28;20202;-83
2023/09/02 07:45:37;;;;;;;6.43;4.95;;;20.80;70.00;22.60;101817.00;;;;5090073;28;20198;-83
2023/09/02 07:48:05;;;;;;;8.95;4.70;;;20.90;70.00;22.60;101823.00;;;;5089509;28;20210;-83
2023/09/02 07:50:32;;;;;;;6.05;4.88;;;20.90;70.00;22.60;101830.00;;;;5089983;28;20218;-83
2023/09/02 07:52:58;;;;;;;7.13;6.22;;;20.90;69.90;22.70;101841.00;;;;5090023;28;20242;-83
2023/09/02 07:55:27;;;;;;;6.25;5.10;;;20.90;70.00;22.70;101838.00;;;;5089889;28;20194;-83
2023/09/02 07:57:54;;;;;;;6.95;5.47;;;20.90;70.00;22.70;101841.00;;;;5089793;28;20198;-83
2023/09/02 08:00:21;;;;;;;6.05;5.05;;;21.00;70.00;22.70;101844.00;;;;5089717;28;20202;-83
2023/09/02 08:02:47;;;;;;;4.82;4.07;;;21.00;70.10;22.80;101848.00;;;;5089742;28;20718;-83
2023/09/02 08:05:15;;;;;;;6.85;4.85;;;21.00;70.10;22.80;101851.00;;;;5089779;28;20202;-83
2023/09/02 08:07:42;;;;;;;5.80;5.13;;;21.10;70.20;22.90;101849.00;;;;5088168;28;20205;-83
2023/09/02 08:10:10;;;;;;;7.43;6.10;;;21.10;70.20;22.90;101850.00;;;;5089250;28;20222;-83
2023/09/02 08:12:40;;;;;;;6.93;5.13;;;21.20;70.40;22.90;101854.00;;;;5089407;28;20198;-81
2023/09/02 08:15:08;;;;;;;6.78;5.35;;;21.20;70.40;23.00;101851.00;;;;5089530;28;20248;-81
2023/09/02 08:17:37;;;;;;;6.13;4.55;;;21.20;70.30;23.00;101858.00;;;;5089734;28;20198;-81
2023/09/02 08:20:05;;;;;;;6.15;4.82;;;21.20;70.20;23.10;101852.00;;;;5089354;28;20210;-81
2023/09/02 08:22:32;;;;;;;6.68;5.30;;;21.30;70.30;23.10;101856.00;;;;5088071;28;20210;-81
2023/09/02 08:24:59;;;;;;;7.93;5.38;;;21.40;70.30;23.10;101851.00;;;;5088659;28;20199;-81
2023/09/02 08:27:26;;;;;;;6.32;5.22;;;21.40;70.20;23.20;101851.00;;;;5089005;28;20190;-81
2023/09/02 08:29:54;;;;;;;7.63;6.35;;;21.40;70.20;23.20;101841.00;;;;5088583;28;20591;-81
2023/09/02 08:32:21;;;;;;;7.20;5.75;;;21.50;70.30;23.30;101839.00;;;;5088306;28;20210;-81
2023/09/02 08:34:48;;;;;;;7.38;5.88;;;21.50;70.10;23.30;101845.00;;;;5088717;28;20205;-82
2023/09/02 08:37:15;;;;;;;7.13;5.57;;;21.50;70.10;23.30;101834.00;;;;5087554;28;20588;-81
2023/09/02 08:39:42;;;;;;;8.93;5.75;;;21.60;70.20;23.40;101827.00;;;;5088985;28;20206;-82
2023/09/02 08:42:10;;;;;;;5.93;5.32;;;21.60;70.30;23.50;101828.00;;;;5088010;28;20210;-82
2023/09/02 08:44:38;;;;;;;7.63;5.13;;;21.70;70.40;23.50;101831.00;;;;5088399;28;20561;-81
2023/09/02 08:47:07;;;;;;;6.95;5.68;;;21.70;70.40;23.50;101834.00;;;;5088258;28;20190;-81
2023/09/02 08:49:35;;;;;;;9.35;4.90;;;21.80;70.50;23.60;101843.00;;;;5088548;28;20560;-82
2023/09/02 08:52:02;;;;;;;8.45;5.97;;;21.80;70.40;23.70;101846.00;;;;5088448;28;20652;-81
2023/09/02 08:54:30;;;;;;;5.93;4.75;;;21.90;70.40;23.70;101841.00;;;;5088901;28;20210;-82
2023/09/02 08:56:58;;;;;;;8.13;5.72;;;21.90;70.30;23.80;101842.00;;;;5089395;28;20212;-81
2023/09/02 08:59:26;;;;;;;7.45;6.07;;;22.00;70.30;23.80;101848.00;;;;5088799;28;20594;-81
2023/09/02 09:01:55;;;;;;;7.20;5.85;;;22.00;70.20;23.80;101859.00;;;;5088924;28;20221;-81
2023/09/02 09:04:27;;;;;;;7.68;6.00;;;22.10;70.30;23.90;101864.00;;;;5088413;28;20199;-82
2023/09/02 09:06:54;;;;;;;8.23;5.88;;;22.10;70.20;23.90;101877.00;;;;5088485;28;20205;-81
2023/09/02 09:09:23;;;;;;;7.68;6.25;;;22.20;70.20;24.00;101876.00;;;;5088973;28;20205;-82
2023/09/02 09:11:51;;;;;;;8.20;6.35;;;22.20;70.10;24.00;101885.00;;;;5088230;28;20637;-81
2023/09/02 09:14:23;;;;;;;9.02;6.07;;;22.20;70.00;24.00;101891.00;;;;5088374;28;20255;-81
2023/09/02 09:16:55;;;;;;;9.40;6.40;;;22.30;70.00;24.00;101890.00;;;;5088662;28;20255;-81
2023/09/02 09:19:26;;;;;;;8.30;6.15;;;22.30;69.80;24.00;101898.00;;;;5088869;28;20202;-81
2023/09/02 09:21:54;;;;;;;8.23;6.25;;;22.30;70.30;24.10;101900.00;;;;5088764;28;20207;-82
2023/09/02 09:24:21;;;;;;;9.02;6.47;;;22.40;69.50;24.10;101903.00;;;;5087588;28;20201;-81
2023/09/02 09:26:49;;;;;;;8.05;6.25;;;22.40;69.40;24.10;101903.00;;;;5067930;28;20680;-82
2023/09/02 09:29:18;;;;;;;8.70;6.82;;;22.40;69.40;24.10;101903.00;;;;5080714;28;20209;-82
2023/09/02 09:31:45;;;;;;;10.43;7.53;;;22.40;69.30;24.10;101919.00;;;;5088068;28;20248;-81
2023/09/02 09:34:13;;;;;;;9.68;7.03;;;22.40;69.30;24.10;101918.00;;;;5088001;28;21173;-82
2023/09/02 09:36:43;;;;;;;8.60;6.80;;;22.40;69.20;24.10;101922.00;;;;5088723;28;20214;-82
2023/09/02 09:39:11;;;;;;;8.18;6.68;;;22.40;69.20;24.10;101932.00;;;;5088587;28;20198;-81
2023/09/02 09:41:47;;;;;;;8.85;7.13;;;22.40;69.20;24.00;101942.00;;;;5087563;28;20206;-81
2023/09/02 09:44:15;;;;;;;8.75;6.35;;;22.40;69.20;24.10;101937.00;;;;5088530;28;20646;-81
2023/09/02 09:46:51;;;;;;;9.65;7.65;;;22.40;69.10;24.00;101937.00;;;;5089496;28;20198;-82
2023/09/02 09:49:25;;;;;;;9.95;6.88;;;22.40;69.10;24.00;101943.00;;;;5092223;28;20305;-81
2023/09/02 09:52:10;;;;;;;12.13;7.45;;;22.40;69.00;24.00;101944.00;;;;5092667;28;20236;-82
2023/09/02 09:54:39;;;;;;;10.80;8.02;;;22.40;69.10;24.10;101948.00;;;;5092024;28;20655;-81
2023/09/02 09:57:10;;;;;;;8.18;6.28;;;22.40;69.10;24.10;101949.00;;;;5092378;28;20205;-82
2023/09/02 09:59:37;;;;;;;10.65;7.68;;;22.40;69.10;24.10;101953.00;;;;5092682;28;20292;-81
2023/09/02 10:02:05;;;;;;;10.60;8.00;;;22.40;69.20;24.10;101962.00;;;;5092797;28;20229;-81
2023/09/02 10:04:34;;;;;;;12.65;9.25;;;22.40;69.10;24.10;101964.00;;;;5092570;28;20209;-81
2023/09/02 10:07:04;;;;;;;10.63;7.55;;;22.40;69.10;24.10;101963.00;;;;5092721;28;20206;-81
2023/09/02 10:09:42;;;;;;;10.85;8.35;;;22.40;69.00;24.10;101972.00;;;;5091717;28;20194;-81
2023/09/02 10:12:13;;;;;;;12.13;8.18;;;22.40;69.10;24.10;101974.00;;;;5092284;28;20194;-81
2023/09/02 10:14:42;;;;;;;12.02;8.95;;;22.40;69.10;24.10;101984.00;;;;5091577;28;20198;-82
2023/09/02 10:17:10;;;;;;;11.68;8.50;;;22.40;69.10;24.20;101977.00;;;;5092119;28;20209;-81
2023/09/02 10:19:38;;;;;;;12.60;8.88;;;22.40;69.10;24.20;101986.00;;;;5091394;28;20202;-81
2023/09/02 10:22:07;;;;;;;12.68;8.70;;;22.40;69.20;24.20;101981.00;;;;5091819;28;20203;-81
2023/09/02 10:24:39;;;;;;;11.65;7.82;;;22.50;69.30;24.20;101979.00;;;;5091320;28;20213;-82
2023/09/02 10:27:18;;;;;;;13.75;9.48;;;22.50;69.30;24.10;101991.00;;;;5091810;28;20197;-81
2023/09/02 10:29:51;;;;;;;13.68;8.88;;;22.50;69.40;24.20;101990.00;;;;5091872;28;20243;-82
2023/09/02 10:32:18;;;;;;;12.13;8.48;;;22.50;69.30;24.30;101989.00;;;;5091954;28;20289;-81
2023/09/02 10:34:54;;;;;;;11.30;8.10;;;22.50;69.30;24.20;101990.00;;;;5091152;28;20646;-82
2023/09/02 10:37:30;;;;;;;12.65;8.88;;;22.60;69.50;24.30;102003.00;;;;5090927;28;20202;-80
2023/09/02 10:40:06;;;;;;;12.50;9.38;;;22.60;69.50;24.30;101995.00;;;;5091556;28;20201;-82
2023/09/02 10:42:35;;;;;;;13.10;9.23;;;22.60;69.40;24.40;101994.00;;;;5092078;28;20197;-81
2023/09/02 10:45:02;;;;;;;11.60;8.93;;;22.60;69.30;24.40;101997.00;;;;5090901;28;20660;-82
2023/09/02 10:47:29;;;;;;;12.40;8.57;;;22.60;69.30;24.40;101999.00;;;;5091550;28;20206;-82